sensor_id;sensor_type;location;lat;lon;timestamp;P1;durP1;ratioP1;P2;durP2;ratioP2
15466;SDS011;7834;49.452;11.056;2022-12-07T00:00:28;9.27;;;7.07;;
15466;SDS011;7834;49.452;11.056;2022-12-07T00:02:55;9.23;;;6.43;;
15466;SDS011;7834;49.452;11.056;2022-12-07T00:05:21;8.87;;;6.27;;
15466;SDS011;7834;49.452;11.056;2022-12-07T00:07:47;8.60;;;6.87;;
15466;SDS011;7834;49.452;11.056;2022-12-07T00:10:13;8.40;;;7.10;;
15466;SDS011;7834;49.452;11.056;2022-12-07T00:12:39;7.63;;;6.83;;
15466;SDS011;7834;49.452;11.056;2022-12-07T00:15:05;7.83;;;6.57;;
15466;SDS011;7834;49.452;11.056;2022-12-07T00:17:31;8.90;;;7.30;;
15466;SDS011;7834;49.452;11.056;2022-12-07T00:19:58;7.83;;;7.00;;
15466;SDS011;7834;49.452;11.056;2022-12-07T00:22:24;7.53;;;6.50;;
15466;SDS011;7834;49.452;11.056;2022-12-07T00:24:50;8.23;;;7.07;;
15466;SDS011;7834;49.452;11.056;2022-12-07T00:27:16;8.90;;;7.33;;
15466;SDS011;7834;49.452;11.056;2022-12-07T00:29:42;8.07;;;7.23;;
15466;SDS011;7834;49.452;11.056;2022-12-07T00:32:08;8.37;;;6.90;;
15466;SDS011;7834;49.452;11.056;2022-12-07T00:34:34;9.50;;;8.27;;
15466;SDS011;7834;49.452;11.056;2022-12-07T00:37:00;9.27;;;7.80;;
15466;SDS011;7834;49.452;11.056;2022-12-07T00:39:26;11.90;;;7.63;;
15466;SDS011;7834;49.452;11.056;2022-12-07T00:41:52;8.50;;;7.10;;
15466;SDS011;7834;49.452;11.056;2022-12-07T00:44:18;8.17;;;7.07;;
15466;SDS011;7834;49.452;11.056;2022-12-07T00:46:44;9.30;;;7.70;;
15466;SDS011;7834;49.452;11.056;2022-12-07T00:49:11;9.63;;;8.20;;
15466;SDS011;7834;49.452;11.056;2022-12-07T00:51:37;8.47;;;7.53;;
15466;SDS011;7834;49.452;11.056;2022-12-07T00:54:03;8.73;;;7.57;;
15466;SDS011;7834;49.452;11.056;2022-12-07T00:56:29;9.47;;;8.40;;
15466;SDS011;7834;49.452;11.056;2022-12-07T00:58:56;10.37;;;8.50;;
15466;SDS011;7834;49.452;11.056;2022-12-07T01:01:23;9.43;;;7.97;;
15466;SDS011;7834;49.452;11.056;2022-12-07T01:03:49;8.07;;;7.27;;
15466;SDS011;7834;49.452;11.056;2022-12-07T01:06:16;9.33;;;7.73;;
15466;SDS011;7834;49.452;11.056;2022-12-07T01:08:43;10.20;;;8.23;;
15466;SDS011;7834;49.452;11.056;2022-12-07T01:11:11;10.53;;;7.73;;
15466;SDS011;7834;49.452;11.056;2022-12-07T01:13:38;9.17;;;8.17;;
15466;SDS011;7834;49.452;11.056;2022-12-07T01:16:04;9.90;;;8.30;;
15466;SDS011;7834;49.452;11.056;2022-12-07T01:18:32;9.90;;;8.37;;
15466;SDS011;7834;49.452;11.056;2022-12-07T01:23:24;12.40;;;8.43;;
15466;SDS011;7834;49.452;11.056;2022-12-07T01:25:54;9.87;;;8.03;;
15466;SDS011;7834;49.452;11.056;2022-12-07T01:28:20;11.17;;;8.97;;
15466;SDS011;7834;49.452;11.056;2022-12-07T01:30:54;10.70;;;8.40;;
15466;SDS011;7834;49.452;11.056;2022-12-07T01:33:20;12.37;;;9.10;;
15466;SDS011;7834;49.452;11.056;2022-12-07T01:35:46;12.20;;;9.23;;
15466;SDS011;7834;49.452;11.056;2022-12-07T01:38:12;10.57;;;8.80;;
15466;SDS011;7834;49.452;11.056;2022-12-07T01:40:38;11.07;;;8.83;;
15466;SDS011;7834;49.452;11.056;2022-12-07T01:43:08;9.10;;;8.00;;
15466;SDS011;7834;49.452;11.056;2022-12-07T01:45:38;13.57;;;9.53;;
15466;SDS011;7834;49.452;11.056;2022-12-07T01:48:05;9.90;;;8.13;;
15466;SDS011;7834;49.452;11.056;2022-12-07T01:50:32;12.47;;;8.60;;
15466;SDS011;7834;49.452;11.056;2022-12-07T01:52:59;12.53;;;8.33;;
15466;SDS011;7834;49.452;11.056;2022-12-07T01:55:27;11.33;;;8.93;;
15466;SDS011;7834;49.452;11.056;2022-12-07T01:57:54;10.63;;;9.33;;
15466;SDS011;7834;49.452;11.056;2022-12-07T02:00:21;10.50;;;8.37;;
15466;SDS011;7834;49.452;11.056;2022-12-07T02:02:48;11.53;;;8.90;;
15466;SDS011;7834;49.452;11.056;2022-12-07T02:05:17;9.70;;;8.63;;
15466;SDS011;7834;49.452;11.056;2022-12-07T02:07:43;10.80;;;9.17;;
15466;SDS011;7834;49.452;11.056;2022-12-07T02:10:20;12.07;;;9.87;;
15466;SDS011;7834;49.452;11.056;2022-12-07T02:12:47;12.30;;;9.47;;
15466;SDS011;7834;49.452;11.056;2022-12-07T02:15:14;14.80;;;10.43;;
15466;SDS011;7834;49.452;11.056;2022-12-07T02:20:16;19.70;;;12.63;;
15466;SDS011;7834;49.452;11.056;2022-12-07T02:25:18;21.67;;;13.53;;
15466;SDS011;7834;49.452;11.056;2022-12-07T02:30:33;13.97;;;10.00;;
15466;SDS011;7834;49.452;11.056;2022-12-07T02:33:02;14.33;;;10.60;;
15466;SDS011;7834;49.452;11.056;2022-12-07T02:40:43;16.30;;;10.93;;
15466;SDS011;7834;49.452;11.056;2022-12-07T02:43:17;14.07;;;10.03;;
15466;SDS011;7834;49.452;11.056;2022-12-07T02:45:44;13.27;;;10.43;;
15466;SDS011;7834;49.452;11.056;2022-12-07T02:48:12;14.40;;;10.10;;
15466;SDS011;7834;49.452;11.056;2022-12-07T02:50:43;14.73;;;10.80;;
15466;SDS011;7834;49.452;11.056;2022-12-07T02:56:20;15.70;;;12.13;;
15466;SDS011;7834;49.452;11.056;2022-12-07T03:01:45;13.23;;;10.67;;
15466;SDS011;7834;49.452;11.056;2022-12-07T03:04:27;13.87;;;10.77;;
15466;SDS011;7834;49.452;11.056;2022-12-07T03:07:00;14.83;;;11.07;;
15466;SDS011;7834;49.452;11.056;2022-12-07T03:09:28;13.80;;;10.80;;
15466;SDS011;7834;49.452;11.056;2022-12-07T03:12:03;15.17;;;11.67;;
15466;SDS011;7834;49.452;11.056;2022-12-07T03:14:33;14.33;;;11.17;;
15466;SDS011;7834;49.452;11.056;2022-12-07T03:17:03;15.57;;;11.57;;
15466;SDS011;7834;49.452;11.056;2022-12-07T03:19:31;14.93;;;11.80;;
15466;SDS011;7834;49.452;11.056;2022-12-07T03:22:01;13.23;;;10.73;;
15466;SDS011;7834;49.452;11.056;2022-12-07T03:24:34;14.40;;;10.53;;
15466;SDS011;7834;49.452;11.056;2022-12-07T03:27:04;14.20;;;10.70;;
15466;SDS011;7834;49.452;11.056;2022-12-07T03:29:34;14.73;;;11.20;;
15466;SDS011;7834;49.452;11.056;2022-12-07T03:32:12;14.50;;;10.93;;
15466;SDS011;7834;49.452;11.056;2022-12-07T03:34:42;14.60;;;10.90;;
15466;SDS011;7834;49.452;11.056;2022-12-07T03:37:20;15.90;;;11.30;;
15466;SDS011;7834;49.452;11.056;2022-12-07T03:39:53;15.60;;;11.43;;
15466;SDS011;7834;49.452;11.056;2022-12-07T03:42:20;14.70;;;11.03;;
15466;SDS011;7834;49.452;11.056;2022-12-07T03:44:46;17.20;;;12.07;;
15466;SDS011;7834;49.452;11.056;2022-12-07T03:47:17;16.30;;;11.77;;
15466;SDS011;7834;49.452;11.056;2022-12-07T03:49:47;16.17;;;11.10;;
15466;SDS011;7834;49.452;11.056;2022-12-07T03:54:41;16.97;;;11.87;;
15466;SDS011;7834;49.452;11.056;2022-12-07T03:57:11;15.17;;;12.00;;
15466;SDS011;7834;49.452;11.056;2022-12-07T03:59:37;15.07;;;11.23;;
15466;SDS011;7834;49.452;11.056;2022-12-07T04:02:05;17.57;;;12.50;;
15466;SDS011;7834;49.452;11.056;2022-12-07T04:04:31;15.60;;;11.67;;
15466;SDS011;7834;49.452;11.056;2022-12-07T04:06:58;19.00;;;12.17;;
15466;SDS011;7834;49.452;11.056;2022-12-07T04:09:24;15.90;;;11.80;;
15466;SDS011;7834;49.452;11.056;2022-12-07T04:11:50;17.43;;;12.63;;
15466;SDS011;7834;49.452;11.056;2022-12-07T04:14:16;15.93;;;12.07;;
15466;SDS011;7834;49.452;11.056;2022-12-07T04:16:46;16.17;;;12.13;;
15466;SDS011;7834;49.452;11.056;2022-12-07T04:19:13;17.90;;;13.03;;
15466;SDS011;7834;49.452;11.056;2022-12-07T04:21:39;19.70;;;13.27;;
15466;SDS011;7834;49.452;11.056;2022-12-07T04:24:05;17.17;;;12.70;;
15466;SDS011;7834;49.452;11.056;2022-12-07T04:26:31;17.73;;;12.93;;
15466;SDS011;7834;49.452;11.056;2022-12-07T04:28:57;18.90;;;13.10;;
15466;SDS011;7834;49.452;11.056;2022-12-07T04:31:23;18.03;;;12.73;;
15466;SDS011;7834;49.452;11.056;2022-12-07T04:33:49;16.47;;;12.20;;
15466;SDS011;7834;49.452;11.056;2022-12-07T04:36:15;16.97;;;12.57;;
15466;SDS011;7834;49.452;11.056;2022-12-07T04:38:41;17.50;;;12.87;;
15466;SDS011;7834;49.452;11.056;2022-12-07T04:41:07;17.50;;;13.10;;
15466;SDS011;7834;49.452;11.056;2022-12-07T04:43:34;18.83;;;13.53;;
15466;SDS011;7834;49.452;11.056;2022-12-07T04:46:00;17.77;;;13.13;;
15466;SDS011;7834;49.452;11.056;2022-12-07T04:48:26;16.23;;;11.80;;
15466;SDS011;7834;49.452;11.056;2022-12-07T04:50:52;17.93;;;13.00;;
15466;SDS011;7834;49.452;11.056;2022-12-07T04:53:18;18.50;;;12.47;;
15466;SDS011;7834;49.452;11.056;2022-12-07T04:55:45;17.93;;;12.47;;
15466;SDS011;7834;49.452;11.056;2022-12-07T04:58:11;19.27;;;13.03;;
15466;SDS011;7834;49.452;11.056;2022-12-07T05:00:38;18.13;;;12.90;;
15466;SDS011;7834;49.452;11.056;2022-12-07T05:03:04;17.23;;;12.70;;
15466;SDS011;7834;49.452;11.056;2022-12-07T05:05:31;19.30;;;12.97;;
15466;SDS011;7834;49.452;11.056;2022-12-07T05:07:57;19.53;;;13.70;;
15466;SDS011;7834;49.452;11.056;2022-12-07T05:10:23;16.87;;;12.90;;
15466;SDS011;7834;49.452;11.056;2022-12-07T05:12:49;17.27;;;12.83;;
15466;SDS011;7834;49.452;11.056;2022-12-07T05:15:15;18.60;;;12.17;;
15466;SDS011;7834;49.452;11.056;2022-12-07T05:17:41;18.50;;;12.80;;
15466;SDS011;7834;49.452;11.056;2022-12-07T05:20:08;18.87;;;13.03;;
15466;SDS011;7834;49.452;11.056;2022-12-07T05:22:34;16.23;;;12.63;;
15466;SDS011;7834;49.452;11.056;2022-12-07T05:25:00;17.33;;;12.77;;
15466;SDS011;7834;49.452;11.056;2022-12-07T05:27:26;19.07;;;14.17;;
15466;SDS011;7834;49.452;11.056;2022-12-07T05:29:52;18.67;;;13.93;;
15466;SDS011;7834;49.452;11.056;2022-12-07T05:32:18;18.43;;;13.17;;
15466;SDS011;7834;49.452;11.056;2022-12-07T05:34:44;18.13;;;12.77;;
15466;SDS011;7834;49.452;11.056;2022-12-07T05:37:10;20.20;;;13.40;;
15466;SDS011;7834;49.452;11.056;2022-12-07T05:39:36;17.93;;;13.13;;
15466;SDS011;7834;49.452;11.056;2022-12-07T05:42:05;20.60;;;14.30;;
15466;SDS011;7834;49.452;11.056;2022-12-07T05:44:38;18.83;;;13.57;;
15466;SDS011;7834;49.452;11.056;2022-12-07T05:47:04;18.13;;;13.40;;
15466;SDS011;7834;49.452;11.056;2022-12-07T05:49:30;19.30;;;13.70;;
15466;SDS011;7834;49.452;11.056;2022-12-07T05:51:57;20.70;;;13.73;;
15466;SDS011;7834;49.452;11.056;2022-12-07T05:54:23;20.17;;;13.47;;
15466;SDS011;7834;49.452;11.056;2022-12-07T05:56:49;22.27;;;15.03;;
15466;SDS011;7834;49.452;11.056;2022-12-07T05:59:16;20.93;;;13.87;;
15466;SDS011;7834;49.452;11.056;2022-12-07T06:01:57;20.73;;;14.73;;
15466;SDS011;7834;49.452;11.056;2022-12-07T06:04:24;21.40;;;14.63;;
15466;SDS011;7834;49.452;11.056;2022-12-07T06:06:51;21.57;;;14.20;;
15466;SDS011;7834;49.452;11.056;2022-12-07T06:09:17;21.83;;;15.17;;
15466;SDS011;7834;49.452;11.056;2022-12-07T06:11:44;21.90;;;14.97;;
15466;SDS011;7834;49.452;11.056;2022-12-07T06:14:28;21.03;;;14.67;;
15466;SDS011;7834;49.452;11.056;2022-12-07T06:16:54;21.83;;;14.73;;
15466;SDS011;7834;49.452;11.056;2022-12-07T06:19:20;20.60;;;14.90;;
15466;SDS011;7834;49.452;11.056;2022-12-07T06:21:46;19.63;;;14.60;;
15466;SDS011;7834;49.452;11.056;2022-12-07T06:24:13;21.47;;;14.63;;
15466;SDS011;7834;49.452;11.056;2022-12-07T06:26:39;22.07;;;14.50;;
15466;SDS011;7834;49.452;11.056;2022-12-07T06:29:05;21.63;;;14.70;;
15466;SDS011;7834;49.452;11.056;2022-12-07T06:31:31;21.37;;;15.20;;
15466;SDS011;7834;49.452;11.056;2022-12-07T06:34:01;23.30;;;15.10;;
15466;SDS011;7834;49.452;11.056;2022-12-07T06:36:27;22.60;;;15.17;;
15466;SDS011;7834;49.452;11.056;2022-12-07T06:38:54;21.27;;;15.60;;
15466;SDS011;7834;49.452;11.056;2022-12-07T06:41:20;22.57;;;15.67;;
15466;SDS011;7834;49.452;11.056;2022-12-07T06:43:46;22.20;;;15.17;;
15466;SDS011;7834;49.452;11.056;2022-12-07T06:46:12;23.23;;;16.00;;
15466;SDS011;7834;49.452;11.056;2022-12-07T06:48:39;21.83;;;15.20;;
15466;SDS011;7834;49.452;11.056;2022-12-07T06:51:05;20.80;;;15.30;;
15466;SDS011;7834;49.452;11.056;2022-12-07T06:53:31;21.60;;;15.13;;
15466;SDS011;7834;49.452;11.056;2022-12-07T06:55:57;21.60;;;14.80;;
15466;SDS011;7834;49.452;11.056;2022-12-07T06:58:23;22.73;;;15.50;;
15466;SDS011;7834;49.452;11.056;2022-12-07T07:00:49;23.27;;;16.73;;
15466;SDS011;7834;49.452;11.056;2022-12-07T07:03:16;24.57;;;14.83;;
15466;SDS011;7834;49.452;11.056;2022-12-07T07:05:42;21.97;;;15.63;;
15466;SDS011;7834;49.452;11.056;2022-12-07T07:08:08;22.37;;;15.17;;
15466;SDS011;7834;49.452;11.056;2022-12-07T07:10:34;22.70;;;15.97;;
15466;SDS011;7834;49.452;11.056;2022-12-07T07:13:01;20.97;;;13.83;;
15466;SDS011;7834;49.452;11.056;2022-12-07T07:15:27;21.43;;;14.87;;
15466;SDS011;7834;49.452;11.056;2022-12-07T07:17:53;23.77;;;15.23;;
15466;SDS011;7834;49.452;11.056;2022-12-07T07:20:19;21.77;;;14.93;;
15466;SDS011;7834;49.452;11.056;2022-12-07T07:22:45;20.13;;;14.40;;
15466;SDS011;7834;49.452;11.056;2022-12-07T07:25:11;23.87;;;15.63;;
15466;SDS011;7834;49.452;11.056;2022-12-07T07:27:37;21.17;;;14.90;;
15466;SDS011;7834;49.452;11.056;2022-12-07T07:30:04;22.13;;;14.93;;
15466;SDS011;7834;49.452;11.056;2022-12-07T07:32:30;23.33;;;15.30;;
15466;SDS011;7834;49.452;11.056;2022-12-07T07:34:56;21.73;;;14.53;;
15466;SDS011;7834;49.452;11.056;2022-12-07T07:37:22;21.50;;;14.70;;
15466;SDS011;7834;49.452;11.056;2022-12-07T07:39:48;21.30;;;15.37;;
15466;SDS011;7834;49.452;11.056;2022-12-07T07:42:14;24.40;;;15.63;;
15466;SDS011;7834;49.452;11.056;2022-12-07T07:44:40;20.67;;;14.50;;
15466;SDS011;7834;49.452;11.056;2022-12-07T07:47:06;21.70;;;14.63;;
15466;SDS011;7834;49.452;11.056;2022-12-07T07:49:32;22.40;;;14.67;;
15466;SDS011;7834;49.452;11.056;2022-12-07T07:51:58;24.87;;;15.67;;
15466;SDS011;7834;49.452;11.056;2022-12-07T07:54:24;22.80;;;15.37;;
15466;SDS011;7834;49.452;11.056;2022-12-07T07:56:50;23.57;;;15.67;;
15466;SDS011;7834;49.452;11.056;2022-12-07T07:59:16;25.20;;;16.30;;
15466;SDS011;7834;49.452;11.056;2022-12-07T08:01:42;24.50;;;15.97;;
15466;SDS011;7834;49.452;11.056;2022-12-07T08:04:08;23.07;;;15.43;;
15466;SDS011;7834;49.452;11.056;2022-12-07T08:06:34;23.73;;;15.13;;
15466;SDS011;7834;49.452;11.056;2022-12-07T08:09:00;28.53;;;16.23;;
15466;SDS011;7834;49.452;11.056;2022-12-07T08:11:26;26.87;;;16.03;;
15466;SDS011;7834;49.452;11.056;2022-12-07T08:13:52;24.70;;;16.00;;
15466;SDS011;7834;49.452;11.056;2022-12-07T08:16:18;27.83;;;15.83;;
15466;SDS011;7834;49.452;11.056;2022-12-07T08:18:44;23.73;;;15.50;;
15466;SDS011;7834;49.452;11.056;2022-12-07T08:21:12;22.77;;;15.30;;
15466;SDS011;7834;49.452;11.056;2022-12-07T08:23:38;24.63;;;15.90;;
15466;SDS011;7834;49.452;11.056;2022-12-07T08:26:06;24.20;;;15.80;;
15466;SDS011;7834;49.452;11.056;2022-12-07T08:28:32;21.70;;;15.10;;
15466;SDS011;7834;49.452;11.056;2022-12-07T08:30:59;22.43;;;15.33;;
15466;SDS011;7834;49.452;11.056;2022-12-07T08:33:25;19.87;;;13.97;;
15466;SDS011;7834;49.452;11.056;2022-12-07T08:35:52;22.20;;;15.57;;
15466;SDS011;7834;49.452;11.056;2022-12-07T08:38:18;23.77;;;16.37;;
15466;SDS011;7834;49.452;11.056;2022-12-07T08:40:44;23.80;;;15.77;;
15466;SDS011;7834;49.452;11.056;2022-12-07T08:43:10;22.93;;;15.77;;
15466;SDS011;7834;49.452;11.056;2022-12-07T08:45:35;22.30;;;14.90;;
15466;SDS011;7834;49.452;11.056;2022-12-07T08:48:03;24.40;;;15.50;;
15466;SDS011;7834;49.452;11.056;2022-12-07T08:50:30;20.40;;;14.30;;
15466;SDS011;7834;49.452;11.056;2022-12-07T08:52:57;20.80;;;14.37;;
15466;SDS011;7834;49.452;11.056;2022-12-07T08:55:24;21.77;;;14.33;;
15466;SDS011;7834;49.452;11.056;2022-12-07T08:57:50;19.90;;;13.37;;
15466;SDS011;7834;49.452;11.056;2022-12-07T09:00:16;20.93;;;14.17;;
15466;SDS011;7834;49.452;11.056;2022-12-07T09:02:43;17.67;;;12.93;;
15466;SDS011;7834;49.452;11.056;2022-12-07T09:05:10;20.43;;;13.70;;
15466;SDS011;7834;49.452;11.056;2022-12-07T09:07:36;21.43;;;13.50;;
15466;SDS011;7834;49.452;11.056;2022-12-07T09:10:02;20.00;;;13.03;;
15466;SDS011;7834;49.452;11.056;2022-12-07T09:12:29;19.57;;;13.40;;
15466;SDS011;7834;49.452;11.056;2022-12-07T09:14:55;20.87;;;13.50;;
15466;SDS011;7834;49.452;11.056;2022-12-07T09:17:21;16.33;;;11.57;;
15466;SDS011;7834;49.452;11.056;2022-12-07T09:19:47;17.83;;;12.57;;
15466;SDS011;7834;49.452;11.056;2022-12-07T09:22:13;16.83;;;12.07;;
15466;SDS011;7834;49.452;11.056;2022-12-07T09:24:39;17.97;;;12.47;;
15466;SDS011;7834;49.452;11.056;2022-12-07T09:27:05;16.97;;;12.43;;
15466;SDS011;7834;49.452;11.056;2022-12-07T09:29:31;18.73;;;12.17;;
15466;SDS011;7834;49.452;11.056;2022-12-07T09:31:57;17.60;;;11.60;;
15466;SDS011;7834;49.452;11.056;2022-12-07T09:34:23;15.90;;;11.03;;
15466;SDS011;7834;49.452;11.056;2022-12-07T09:36:51;19.93;;;12.67;;
15466;SDS011;7834;49.452;11.056;2022-12-07T09:39:17;15.93;;;11.87;;
15466;SDS011;7834;49.452;11.056;2022-12-07T09:41:43;16.03;;;11.00;;
15466;SDS011;7834;49.452;11.056;2022-12-07T09:44:19;15.73;;;11.07;;
15466;SDS011;7834;49.452;11.056;2022-12-07T09:46:47;14.83;;;10.80;;
15466;SDS011;7834;49.452;11.056;2022-12-07T09:49:16;17.93;;;11.00;;
15466;SDS011;7834;49.452;11.056;2022-12-07T09:51:43;14.17;;;10.67;;
15466;SDS011;7834;49.452;11.056;2022-12-07T09:54:13;17.07;;;11.03;;
15466;SDS011;7834;49.452;11.056;2022-12-07T09:56:39;17.07;;;11.17;;
15466;SDS011;7834;49.452;11.056;2022-12-07T09:59:05;16.47;;;11.10;;
15466;SDS011;7834;49.452;11.056;2022-12-07T10:01:32;19.73;;;11.60;;
15466;SDS011;7834;49.452;11.056;2022-12-07T10:06:34;16.47;;;10.77;;
15466;SDS011;7834;49.452;11.056;2022-12-07T10:09:00;16.47;;;11.03;;
15466;SDS011;7834;49.452;11.056;2022-12-07T10:11:26;17.10;;;11.97;;
15466;SDS011;7834;49.452;11.056;2022-12-07T10:13:52;17.53;;;11.77;;
15466;SDS011;7834;49.452;11.056;2022-12-07T10:18:51;17.03;;;11.53;;
15466;SDS011;7834;49.452;11.056;2022-12-07T10:21:18;17.83;;;11.30;;
15466;SDS011;7834;49.452;11.056;2022-12-07T10:29:13;17.53;;;11.60;;
15466;SDS011;7834;49.452;11.056;2022-12-07T10:31:41;18.43;;;11.67;;
15466;SDS011;7834;49.452;11.056;2022-12-07T10:37:13;17.67;;;11.77;;
15466;SDS011;7834;49.452;11.056;2022-12-07T10:42:22;14.97;;;11.07;;
15466;SDS011;7834;49.452;11.056;2022-12-07T10:44:49;15.87;;;10.90;;
15466;SDS011;7834;49.452;11.056;2022-12-07T10:47:20;14.57;;;10.73;;
15466;SDS011;7834;49.452;11.056;2022-12-07T10:57:35;13.70;;;10.03;;
15466;SDS011;7834;49.452;11.056;2022-12-07T11:00:07;15.47;;;11.17;;
15466;SDS011;7834;49.452;11.056;2022-12-07T11:02:41;15.60;;;10.20;;
15466;SDS011;7834;49.452;11.056;2022-12-07T11:07:59;15.50;;;10.30;;
15466;SDS011;7834;49.452;11.056;2022-12-07T11:13:03;15.67;;;10.37;;
15466;SDS011;7834;49.452;11.056;2022-12-07T11:20:51;17.47;;;11.93;;
15466;SDS011;7834;49.452;11.056;2022-12-07T11:26:11;19.37;;;13.03;;
15466;SDS011;7834;49.452;11.056;2022-12-07T11:31:12;16.97;;;11.30;;
15466;SDS011;7834;49.452;11.056;2022-12-07T11:33:47;17.07;;;11.87;;
15466;SDS011;7834;49.452;11.056;2022-12-07T11:36:29;16.60;;;11.33;;
15466;SDS011;7834;49.452;11.056;2022-12-07T11:38:57;16.83;;;12.00;;
15466;SDS011;7834;49.452;11.056;2022-12-07T11:41:28;18.73;;;12.47;;
15466;SDS011;7834;49.452;11.056;2022-12-07T11:46:23;18.07;;;11.83;;
15466;SDS011;7834;49.452;11.056;2022-12-07T11:51:22;14.53;;;10.50;;
15466;SDS011;7834;49.452;11.056;2022-12-07T11:53:49;15.63;;;11.90;;
15466;SDS011;7834;49.452;11.056;2022-12-07T11:56:19;16.27;;;11.37;;
15466;SDS011;7834;49.452;11.056;2022-12-07T12:06:38;15.70;;;11.10;;
15466;SDS011;7834;49.452;11.056;2022-12-07T12:09:19;16.90;;;11.17;;
15466;SDS011;7834;49.452;11.056;2022-12-07T12:17:06;15.67;;;11.03;;
15466;SDS011;7834;49.452;11.056;2022-12-07T12:22:11;16.23;;;11.80;;
15466;SDS011;7834;49.452;11.056;2022-12-07T12:24:38;17.20;;;12.00;;
15466;SDS011;7834;49.452;11.056;2022-12-07T12:27:06;15.27;;;10.63;;
15466;SDS011;7834;49.452;11.056;2022-12-07T12:29:39;16.57;;;11.77;;
15466;SDS011;7834;49.452;11.056;2022-12-07T12:32:16;16.57;;;11.10;;
15466;SDS011;7834;49.452;11.056;2022-12-07T12:42:56;21.70;;;11.10;;
15466;SDS011;7834;49.452;11.056;2022-12-07T12:45:29;21.33;;;11.57;;
15466;SDS011;7834;49.452;11.056;2022-12-07T12:50:35;15.67;;;10.73;;
15466;SDS011;7834;49.452;11.056;2022-12-07T12:53:21;14.53;;;11.00;;
15466;SDS011;7834;49.452;11.056;2022-12-07T12:56:13;15.33;;;10.77;;
15466;SDS011;7834;49.452;11.056;2022-12-07T12:58:35;15.50;;;10.97;;
15466;SDS011;7834;49.452;11.056;2022-12-07T13:03:53;17.87;;;11.53;;
15466;SDS011;7834;49.452;11.056;2022-12-07T13:06:31;16.23;;;11.07;;
15466;SDS011;7834;49.452;11.056;2022-12-07T13:09:00;18.87;;;11.67;;
15466;SDS011;7834;49.452;11.056;2022-12-07T13:13:57;17.53;;;12.00;;
15466;SDS011;7834;49.452;11.056;2022-12-07T13:16:39;18.40;;;11.77;;
15466;SDS011;7834;49.452;11.056;2022-12-07T13:19:27;16.43;;;11.90;;
15466;SDS011;7834;49.452;11.056;2022-12-07T13:21:51;21.87;;;12.10;;
15466;SDS011;7834;49.452;11.056;2022-12-07T13:24:18;17.60;;;11.87;;
15466;SDS011;7834;49.452;11.056;2022-12-07T13:26:44;20.47;;;12.23;;
15466;SDS011;7834;49.452;11.056;2022-12-07T13:29:17;17.07;;;12.10;;
15466;SDS011;7834;49.452;11.056;2022-12-07T13:31:48;19.70;;;12.03;;
15466;SDS011;7834;49.452;11.056;2022-12-07T13:37:01;19.67;;;12.07;;
15466;SDS011;7834;49.452;11.056;2022-12-07T13:39:27;16.73;;;12.20;;
15466;SDS011;7834;49.452;11.056;2022-12-07T13:44:21;14.63;;;10.77;;
15466;SDS011;7834;49.452;11.056;2022-12-07T13:49:24;25.17;;;14.80;;
15466;SDS011;7834;49.452;11.056;2022-12-07T13:51:51;14.70;;;10.73;;
15466;SDS011;7834;49.452;11.056;2022-12-07T13:54:18;18.17;;;11.10;;
15466;SDS011;7834;49.452;11.056;2022-12-07T13:56:46;15.67;;;11.33;;
15466;SDS011;7834;49.452;11.056;2022-12-07T13:59:17;16.67;;;11.90;;
15466;SDS011;7834;49.452;11.056;2022-12-07T14:01:45;19.37;;;12.60;;
15466;SDS011;7834;49.452;11.056;2022-12-07T14:06:57;19.17;;;13.33;;
15466;SDS011;7834;49.452;11.056;2022-12-07T14:09:24;15.30;;;11.20;;
15466;SDS011;7834;49.452;11.056;2022-12-07T14:11:54;16.90;;;11.60;;
15466;SDS011;7834;49.452;11.056;2022-12-07T14:14:22;15.80;;;11.50;;
15466;SDS011;7834;49.452;11.056;2022-12-07T14:17:01;16.63;;;11.17;;
15466;SDS011;7834;49.452;11.056;2022-12-07T14:22:17;16.03;;;11.27;;
15466;SDS011;7834;49.452;11.056;2022-12-07T14:24:44;16.73;;;11.30;;
15466;SDS011;7834;49.452;11.056;2022-12-07T14:27:18;18.17;;;11.47;;
15466;SDS011;7834;49.452;11.056;2022-12-07T14:29:44;17.67;;;11.33;;
15466;SDS011;7834;49.452;11.056;2022-12-07T14:32:17;15.83;;;11.63;;
15466;SDS011;7834;49.452;11.056;2022-12-07T14:34:57;19.53;;;12.27;;
15466;SDS011;7834;49.452;11.056;2022-12-07T14:37:24;18.57;;;12.10;;
15466;SDS011;7834;49.452;11.056;2022-12-07T14:39:50;17.67;;;12.67;;
15466;SDS011;7834;49.452;11.056;2022-12-07T14:42:16;18.40;;;12.83;;
15466;SDS011;7834;49.452;11.056;2022-12-07T14:44:42;18.63;;;12.47;;
15466;SDS011;7834;49.452;11.056;2022-12-07T14:47:12;18.10;;;12.30;;
15466;SDS011;7834;49.452;11.056;2022-12-07T14:49:38;16.80;;;11.17;;
15466;SDS011;7834;49.452;11.056;2022-12-07T14:52:04;18.60;;;12.73;;
15466;SDS011;7834;49.452;11.056;2022-12-07T14:54:31;17.93;;;12.23;;
15466;SDS011;7834;49.452;11.056;2022-12-07T14:56:58;9.00;;;7.37;;
15466;SDS011;7834;49.452;11.056;2022-12-07T14:59:24;10.80;;;8.10;;
15466;SDS011;7834;49.452;11.056;2022-12-07T15:01:50;11.73;;;8.80;;
15466;SDS011;7834;49.452;11.056;2022-12-07T15:04:16;12.23;;;9.10;;
15466;SDS011;7834;49.452;11.056;2022-12-07T15:06:53;14.67;;;11.00;;
15466;SDS011;7834;49.452;11.056;2022-12-07T15:09:19;14.17;;;10.63;;
15466;SDS011;7834;49.452;11.056;2022-12-07T15:11:45;18.60;;;12.37;;
15466;SDS011;7834;49.452;11.056;2022-12-07T15:14:11;21.03;;;12.50;;
15466;SDS011;7834;49.452;11.056;2022-12-07T15:16:39;16.03;;;11.60;;
15466;SDS011;7834;49.452;11.056;2022-12-07T15:19:05;14.73;;;11.13;;
15466;SDS011;7834;49.452;11.056;2022-12-07T15:21:31;18.03;;;12.67;;
15466;SDS011;7834;49.452;11.056;2022-12-07T15:23:58;17.07;;;12.17;;
15466;SDS011;7834;49.452;11.056;2022-12-07T15:26:24;17.80;;;11.43;;
15466;SDS011;7834;49.452;11.056;2022-12-07T15:28:52;18.97;;;11.97;;
15466;SDS011;7834;49.452;11.056;2022-12-07T15:31:19;17.77;;;12.30;;
15466;SDS011;7834;49.452;11.056;2022-12-07T15:33:45;17.30;;;12.07;;
15466;SDS011;7834;49.452;11.056;2022-12-07T15:36:17;17.27;;;11.60;;
15466;SDS011;7834;49.452;11.056;2022-12-07T15:38:43;17.20;;;11.50;;
15466;SDS011;7834;49.452;11.056;2022-12-07T15:41:09;18.90;;;11.73;;
15466;SDS011;7834;49.452;11.056;2022-12-07T15:43:36;16.80;;;11.10;;
15466;SDS011;7834;49.452;11.056;2022-12-07T15:46:20;19.13;;;12.37;;
15466;SDS011;7834;49.452;11.056;2022-12-07T15:48:46;18.73;;;12.23;;
15466;SDS011;7834;49.452;11.056;2022-12-07T15:51:12;18.67;;;12.20;;
15466;SDS011;7834;49.452;11.056;2022-12-07T15:53:39;17.80;;;11.80;;
15466;SDS011;7834;49.452;11.056;2022-12-07T15:56:06;18.73;;;12.20;;
15466;SDS011;7834;49.452;11.056;2022-12-07T15:58:32;17.90;;;12.33;;
15466;SDS011;7834;49.452;11.056;2022-12-07T16:00:58;18.50;;;12.60;;
15466;SDS011;7834;49.452;11.056;2022-12-07T16:03:24;17.10;;;12.30;;
15466;SDS011;7834;49.452;11.056;2022-12-07T16:05:50;17.07;;;11.93;;
15466;SDS011;7834;49.452;11.056;2022-12-07T16:08:17;16.93;;;12.20;;
15466;SDS011;7834;49.452;11.056;2022-12-07T16:10:43;18.07;;;13.40;;
15466;SDS011;7834;49.452;11.056;2022-12-07T16:13:09;20.73;;;14.00;;
15466;SDS011;7834;49.452;11.056;2022-12-07T16:15:39;18.30;;;12.50;;
15466;SDS011;7834;49.452;11.056;2022-12-07T16:18:05;18.50;;;12.70;;
15466;SDS011;7834;49.452;11.056;2022-12-07T16:20:31;18.20;;;12.13;;
15466;SDS011;7834;49.452;11.056;2022-12-07T16:22:57;16.87;;;12.57;;